Terminal Aerodrome Forecast
Issued by NWS Charleston, WV

Current Version | Previous Version | Graphics & Text | Print | Product List | Glossary On
Versions: 1 2 3 4 5 6 7 8 9 10 11 12 13 14 15 16 17 18 19 20 21 22 23
000
FTUS41 KRLX 271700
TAFCRW
TAF
KCRW 271722Z 2718/2818 04004KT P6SM SCT045 SCT250
     FM280800 VRB03KT 5SM BR SCT200
     FM281100 VRB03KT 2SM BR SCT001 BKN200
     FM281300 00000KT 5SM BR BKN200
     FM281500 00000KT P6SM SCT120=

USA.gov is the U.S. government's official web portal to all federal, state and local government web resources and services.